sensor_id;sensor_type;location;lat;lon;timestamp;pressure;altitude;pressure_sealevel;temperature;humidity
75298;BME280;63896;45.990;18.688;2023-08-21T00:01:14;101075.53;;;23.18;100.00
75298;BME280;63896;45.990;18.688;2023-08-21T00:04:17;101072.31;;;23.16;100.00
75298;BME280;63896;45.990;18.688;2023-08-21T00:07:20;101075.59;;;23.13;100.00
75298;BME280;63896;45.990;18.688;2023-08-21T00:10:23;101077.75;;;23.06;100.00
75298;BME280;63896;45.990;18.688;2023-08-21T00:13:26;101075.06;;;23.06;100.00
75298;BME280;63896;45.990;18.688;2023-08-21T00:16:29;101072.66;;;22.99;100.00
75298;BME280;63896;45.990;18.688;2023-08-21T00:19:32;101075.41;;;22.94;100.00
75298;BME280;63896;45.990;18.688;2023-08-21T00:22:36;101071.09;;;22.93;100.00
75298;BME280;63896;45.990;18.688;2023-08-21T00:25:40;101065.97;;;22.87;100.00
75298;BME280;63896;45.990;18.688;2023-08-21T00:28:42;101066.28;;;22.80;100.00
75298;BME280;63896;45.990;18.688;2023-08-21T00:31:45;101064.97;;;22.72;100.00
75298;BME280;63896;45.990;18.688;2023-08-21T00:34:48;101062.00;;;22.69;100.00
75298;BME280;63896;45.990;18.688;2023-08-21T00:37:51;101064.13;;;22.67;100.00
75298;BME280;63896;45.990;18.688;2023-08-21T00:40:54;101070.13;;;22.69;100.00
75298;BME280;63896;45.990;18.688;2023-08-21T00:43:56;101067.41;;;22.69;100.00
75298;BME280;63896;45.990;18.688;2023-08-21T00:47:00;101063.09;;;22.63;100.00
75298;BME280;63896;45.990;18.688;2023-08-21T00:50:06;101066.59;;;22.63;100.00
75298;BME280;63896;45.990;18.688;2023-08-21T00:53:10;101066.06;;;22.61;100.00
75298;BME280;63896;45.990;18.688;2023-08-21T00:56:13;101065.00;;;22.57;100.00
75298;BME280;63896;45.990;18.688;2023-08-21T00:59:16;101055.56;;;22.50;100.00
75298;BME280;63896;45.990;18.688;2023-08-21T01:02:19;101069.66;;;22.47;100.00
75298;BME280;63896;45.990;18.688;2023-08-21T01:05:22;101061.28;;;22.43;100.00
75298;BME280;63896;45.990;18.688;2023-08-21T01:11:42;101068.84;;;22.41;100.00
75298;BME280;63896;45.990;18.688;2023-08-21T01:15:26;101069.66;;;22.47;100.00
75298;BME280;63896;45.990;18.688;2023-08-21T01:18:22;101076.97;;;22.46;100.00
75298;BME280;63896;45.990;18.688;2023-08-21T01:21:25;101077.78;;;22.42;100.00
75298;BME280;63896;45.990;18.688;2023-08-21T01:24:28;101072.94;;;22.33;100.00
75298;BME280;63896;45.990;18.688;2023-08-21T01:27:32;101063.50;;;22.31;100.00
75298;BME280;63896;45.990;18.688;2023-08-21T01:30:36;101063.75;;;22.24;100.00
75298;BME280;63896;45.990;18.688;2023-08-21T01:33:49;101069.75;;;22.11;100.00
75298;BME280;63896;45.990;18.688;2023-08-21T01:36:53;101075.75;;;21.93;100.00
75298;BME280;63896;45.990;18.688;2023-08-21T01:39:59;101068.69;;;21.87;100.00
75298;BME280;63896;45.990;18.688;2023-08-21T01:43:02;101077.06;;;21.80;100.00
75298;BME280;63896;45.990;18.688;2023-08-21T01:46:05;101072.47;;;21.76;100.00
75298;BME280;63896;45.990;18.688;2023-08-21T01:49:09;101072.22;;;21.72;100.00
75298;BME280;63896;45.990;18.688;2023-08-21T01:52:12;101076.53;;;21.68;100.00
75298;BME280;63896;45.990;18.688;2023-08-21T01:55:14;101069.50;;;21.67;100.00
75298;BME280;63896;45.990;18.688;2023-08-21T01:58:17;101075.72;;;21.68;100.00
75298;BME280;63896;45.990;18.688;2023-08-21T02:01:20;101075.47;;;21.69;100.00
75298;BME280;63896;45.990;18.688;2023-08-21T02:04:24;101072.50;;;21.66;100.00
75298;BME280;63896;45.990;18.688;2023-08-21T02:07:27;101067.59;;;21.63;100.00
75298;BME280;63896;45.990;18.688;2023-08-21T02:10:29;101068.97;;;21.60;100.00
75298;BME280;63896;45.990;18.688;2023-08-21T02:13:32;101070.59;;;21.56;100.00
75298;BME280;63896;45.990;18.688;2023-08-21T02:16:35;101072.19;;;21.52;100.00
75298;BME280;63896;45.990;18.688;2023-08-21T02:19:39;101068.16;;;21.50;100.00
75298;BME280;63896;45.990;18.688;2023-08-21T02:22:41;101073.28;;;21.46;100.00
75298;BME280;63896;45.990;18.688;2023-08-21T02:25:44;101070.03;;;21.44;100.00
75298;BME280;63896;45.990;18.688;2023-08-21T02:28:47;101068.44;;;21.43;100.00
75298;BME280;63896;45.990;18.688;2023-08-21T02:31:50;101072.75;;;21.39;100.00
75298;BME280;63896;45.990;18.688;2023-08-21T02:34:53;101069.50;;;21.37;100.00
75298;BME280;63896;45.990;18.688;2023-08-21T02:37:55;101070.31;;;21.43;100.00
75298;BME280;63896;45.990;18.688;2023-08-21T02:40:58;101069.75;;;21.41;100.00
75298;BME280;63896;45.990;18.688;2023-08-21T02:44:01;101080.84;;;21.34;100.00
75298;BME280;63896;45.990;18.688;2023-08-21T02:47:04;101078.69;;;21.31;100.00
75298;BME280;63896;45.990;18.688;2023-08-21T02:50:08;101083.53;;;21.19;100.00
75298;BME280;63896;45.990;18.688;2023-08-21T02:53:12;101078.91;;;21.14;100.00
75298;BME280;63896;45.990;18.688;2023-08-21T02:56:15;101084.53;;;21.03;100.00
75298;BME280;63896;45.990;18.688;2023-08-21T02:59:18;101076.13;;;20.94;100.00
75298;BME280;63896;45.990;18.688;2023-08-21T03:02:21;101077.47;;;20.86;100.00
75298;BME280;63896;45.990;18.688;2023-08-21T03:05:24;101079.88;;;20.83;100.00
75298;BME280;63896;45.990;18.688;2023-08-21T03:08:27;101080.94;;;20.77;100.00
75298;BME280;63896;45.990;18.688;2023-08-21T03:11:30;101077.16;;;20.73;100.00
75298;BME280;63896;45.990;18.688;2023-08-21T03:14:33;101085.78;;;20.75;100.00
75298;BME280;63896;45.990;18.688;2023-08-21T03:17:36;101083.34;;;20.68;100.00
75298;BME280;63896;45.990;18.688;2023-08-21T03:20:44;101083.59;;;20.62;100.00
75298;BME280;63896;45.990;18.688;2023-08-21T03:23:50;101085.97;;;20.53;100.00
75298;BME280;63896;45.990;18.688;2023-08-21T03:26:53;101089.72;;;20.52;100.00
75298;BME280;63896;45.990;18.688;2023-08-21T03:29:56;101090.22;;;20.44;100.00
75298;BME280;63896;45.990;18.688;2023-08-21T03:33:04;101089.94;;;20.40;100.00
75298;BME280;63896;45.990;18.688;2023-08-21T03:36:07;101094.28;;;20.41;100.00
75298;BME280;63896;45.990;18.688;2023-08-21T03:39:10;101098.56;;;20.37;100.00
75298;BME280;63896;45.990;18.688;2023-08-21T03:42:18;101099.09;;;20.34;100.00
75298;BME280;63896;45.990;18.688;2023-08-21T03:45:21;101106.38;;;20.34;100.00
75298;BME280;63896;45.990;18.688;2023-08-21T03:48:24;101112.00;;;20.32;100.00
75298;BME280;63896;45.990;18.688;2023-08-21T03:51:27;101110.94;;;20.33;100.00
75298;BME280;63896;45.990;18.688;2023-08-21T03:54:31;101113.69;;;20.38;100.00
75298;BME280;63896;45.990;18.688;2023-08-21T03:57:33;101108.81;;;20.40;100.00
75298;BME280;63896;45.990;18.688;2023-08-21T04:00:40;101109.38;;;20.42;100.00
75298;BME280;63896;45.990;18.688;2023-08-21T04:03:43;101102.91;;;20.43;100.00
75298;BME280;63896;45.990;18.688;2023-08-21T04:06:47;101112.09;;;20.48;100.00
75298;BME280;63896;45.990;18.688;2023-08-21T04:09:50;101105.66;;;20.54;100.00
75298;BME280;63896;45.990;18.688;2023-08-21T04:12:52;101109.47;;;20.58;100.00
75298;BME280;63896;45.990;18.688;2023-08-21T04:15:59;101113.25;;;20.62;100.00
75298;BME280;63896;45.990;18.688;2023-08-21T04:19:02;101108.16;;;20.70;100.00
75298;BME280;63896;45.990;18.688;2023-08-21T04:22:05;101105.22;;;20.82;100.00
75298;BME280;63896;45.990;18.688;2023-08-21T04:25:08;101113.94;;;20.99;100.00
75298;BME280;63896;45.990;18.688;2023-08-21T04:28:11;101115.34;;;21.17;100.00
75298;BME280;63896;45.990;18.688;2023-08-21T04:31:14;101121.34;;;21.39;100.00
75298;BME280;63896;45.990;18.688;2023-08-21T04:34:19;101118.38;;;21.56;100.00
75298;BME280;63896;45.990;18.688;2023-08-21T04:37:22;101121.94;;;21.92;100.00
75298;BME280;63896;45.990;18.688;2023-08-21T04:40:25;101117.88;;;21.99;100.00
75298;BME280;63896;45.990;18.688;2023-08-21T04:43:29;101121.91;;;22.27;100.00
75298;BME280;63896;45.990;18.688;2023-08-21T04:46:32;101118.00;;;22.63;100.00
75298;BME280;63896;45.990;18.688;2023-08-21T04:49:35;101125.31;;;22.68;100.00
75298;BME280;63896;45.990;18.688;2023-08-21T04:52:37;101124.69;;;22.86;100.00
75298;BME280;63896;45.990;18.688;2023-08-21T04:55:41;101129.63;;;23.28;100.00
75298;BME280;63896;45.990;18.688;2023-08-21T04:58:44;101131.38;;;23.53;100.00
75298;BME280;63896;45.990;18.688;2023-08-21T05:01:47;101133.81;;;23.54;98.35
75298;BME280;63896;45.990;18.688;2023-08-21T05:04:51;101130.91;;;23.46;100.00
75298;BME280;63896;45.990;18.688;2023-08-21T05:07:54;101131.56;;;23.22;100.00
75298;BME280;63896;45.990;18.688;2023-08-21T05:10:59;101133.28;;;23.08;100.00
75298;BME280;63896;45.990;18.688;2023-08-21T05:14:05;101136.00;;;23.03;100.00
75298;BME280;63896;45.990;18.688;2023-08-21T05:17:08;101132.88;;;23.25;100.00
75298;BME280;63896;45.990;18.688;2023-08-21T05:20:11;101138.88;;;23.66;100.00
75298;BME280;63896;45.990;18.688;2023-08-21T05:23:18;101136.03;;;24.15;98.28
75298;BME280;63896;45.990;18.688;2023-08-21T05:26:23;101134.50;;;24.56;94.99
75298;BME280;63896;45.990;18.688;2023-08-21T05:29:26;101126.88;;;25.25;91.64
75298;BME280;63896;45.990;18.688;2023-08-21T05:32:29;101132.91;;;25.59;89.05
75298;BME280;63896;45.990;18.688;2023-08-21T05:35:33;101131.22;;;25.63;87.80
75298;BME280;63896;45.990;18.688;2023-08-21T05:38:38;101135.75;;;26.00;87.22
75298;BME280;63896;45.990;18.688;2023-08-21T05:41:41;101133.16;;;26.68;83.24
75298;BME280;63896;45.990;18.688;2023-08-21T05:44:44;101132.41;;;27.17;80.40
75298;BME280;63896;45.990;18.688;2023-08-21T05:47:47;101133.63;;;27.47;79.32
75298;BME280;63896;45.990;18.688;2023-08-21T05:50:53;101126.63;;;27.99;76.86
75298;BME280;63896;45.990;18.688;2023-08-21T05:53:56;101132.59;;;28.71;73.05
75298;BME280;63896;45.990;18.688;2023-08-21T05:56:59;101131.75;;;29.45;69.67
75298;BME280;63896;45.990;18.688;2023-08-21T06:00:02;101123.19;;;29.89;68.75
75298;BME280;63896;45.990;18.688;2023-08-21T06:03:16;101130.72;;;30.01;67.26
75298;BME280;63896;45.990;18.688;2023-08-21T06:06:37;101129.72;;;30.60;65.12
75298;BME280;63896;45.990;18.688;2023-08-21T06:09:41;101133.41;;;30.64;64.57
75298;BME280;63896;45.990;18.688;2023-08-21T06:12:44;101132.09;;;31.00;62.95
75298;BME280;63896;45.990;18.688;2023-08-21T06:15:47;101124.75;;;31.12;62.41
75298;BME280;63896;45.990;18.688;2023-08-21T06:18:50;101126.34;;;31.34;61.88
75298;BME280;63896;45.990;18.688;2023-08-21T06:21:54;101133.50;;;29.66;67.36
75298;BME280;63896;45.990;18.688;2023-08-21T06:24:56;101135.94;;;30.32;64.64
75298;BME280;63896;45.990;18.688;2023-08-21T06:27:59;101118.03;;;29.70;67.07
75298;BME280;63896;45.990;18.688;2023-08-21T06:31:02;101125.13;;;29.54;68.71
75298;BME280;63896;45.990;18.688;2023-08-21T06:34:10;101126.19;;;30.13;66.98
75298;BME280;63896;45.990;18.688;2023-08-21T06:37:12;101127.66;;;30.11;65.70
75298;BME280;63896;45.990;18.688;2023-08-21T06:40:15;101131.19;;;30.58;64.41
75298;BME280;63896;45.990;18.688;2023-08-21T06:43:18;101123.84;;;31.41;61.73
75298;BME280;63896;45.990;18.688;2023-08-21T06:46:24;101131.16;;;31.91;60.29
75298;BME280;63896;45.990;18.688;2023-08-21T06:49:26;101121.88;;;32.28;59.43
75298;BME280;63896;45.990;18.688;2023-08-21T06:52:29;101123.69;;;33.37;56.95
75298;BME280;63896;45.990;18.688;2023-08-21T06:55:32;101123.13;;;33.71;54.82
75298;BME280;63896;45.990;18.688;2023-08-21T06:58:35;101125.22;;;33.62;55.94
75298;BME280;63896;45.990;18.688;2023-08-21T07:01:38;101129.34;;;34.43;53.35
75298;BME280;63896;45.990;18.688;2023-08-21T07:04:40;101135.88;;;35.20;49.00
75298;BME280;63896;45.990;18.688;2023-08-21T07:07:43;101130.50;;;35.47;48.66
75298;BME280;63896;45.990;18.688;2023-08-21T07:10:46;101125.28;;;36.25;46.09
75298;BME280;63896;45.990;18.688;2023-08-21T07:13:49;101125.56;;;37.22;42.60
75298;BME280;63896;45.990;18.688;2023-08-21T07:16:52;101130.97;;;36.59;45.24
75298;BME280;63896;45.990;18.688;2023-08-21T07:19:55;101129.09;;;36.17;45.40
75298;BME280;63896;45.990;18.688;2023-08-21T07:22:58;101129.00;;;37.45;42.10
75298;BME280;63896;45.990;18.688;2023-08-21T07:26:01;101130.22;;;37.48;41.63
75298;BME280;63896;45.990;18.688;2023-08-21T07:29:04;101133.78;;;37.15;42.25
75298;BME280;63896;45.990;18.688;2023-08-21T07:32:07;101134.97;;;37.81;40.95
75298;BME280;63896;45.990;18.688;2023-08-21T07:35:10;101132.38;;;37.32;42.11
75298;BME280;63896;45.990;18.688;2023-08-21T07:38:13;101132.59;;;37.83;40.71
75298;BME280;63896;45.990;18.688;2023-08-21T07:41:16;101138.16;;;39.50;36.90
75298;BME280;63896;45.990;18.688;2023-08-21T07:44:18;101137.72;;;39.48;36.86
75298;BME280;63896;45.990;18.688;2023-08-21T07:47:23;101133.09;;;40.02;35.73
75298;BME280;63896;45.990;18.688;2023-08-21T07:50:26;101124.78;;;38.39;38.64
75298;BME280;63896;45.990;18.688;2023-08-21T07:53:29;101136.28;;;40.07;35.60
75298;BME280;63896;45.990;18.688;2023-08-21T07:56:33;101133.91;;;40.37;34.49
75298;BME280;63896;45.990;18.688;2023-08-21T07:59:38;101130.28;;;40.83;33.62
75298;BME280;63896;45.990;18.688;2023-08-21T08:02:40;101126.78;;;40.22;34.40
75298;BME280;63896;45.990;18.688;2023-08-21T08:05:45;101130.63;;;39.58;35.50
75298;BME280;63896;45.990;18.688;2023-08-21T08:08:56;101127.16;;;40.17;34.76
75298;BME280;63896;45.990;18.688;2023-08-21T08:11:59;101134.69;;;39.99;34.60
75298;BME280;63896;45.990;18.688;2023-08-21T08:15:02;101124.81;;;41.56;31.85
75298;BME280;63896;45.990;18.688;2023-08-21T08:18:11;101121.72;;;41.40;32.18
75298;BME280;63896;45.990;18.688;2023-08-21T08:21:14;101125.53;;;39.95;34.48
75298;BME280;63896;45.990;18.688;2023-08-21T08:24:35;101120.41;;;40.15;34.46
75298;BME280;63896;45.990;18.688;2023-08-21T08:27:38;101120.38;;;40.54;33.67
75298;BME280;63896;45.990;18.688;2023-08-21T08:30:41;101121.13;;;40.79;33.36
75298;BME280;63896;45.990;18.688;2023-08-21T08:33:43;101115.84;;;41.93;31.43
75298;BME280;63896;45.990;18.688;2023-08-21T08:36:46;101126.38;;;42.19;31.45
75298;BME280;63896;45.990;18.688;2023-08-21T08:39:49;101122.84;;;41.53;33.43
75298;BME280;63896;45.990;18.688;2023-08-21T08:42:52;101134.81;;;42.12;30.54
75298;BME280;63896;45.990;18.688;2023-08-21T08:45:56;101125.66;;;42.52;30.44
75298;BME280;63896;45.990;18.688;2023-08-21T08:49:01;101128.41;;;42.97;28.72
75298;BME280;63896;45.990;18.688;2023-08-21T08:52:04;101127.31;;;42.50;29.30
75298;BME280;63896;45.990;18.688;2023-08-21T08:55:07;101114.63;;;42.83;29.49
75298;BME280;63896;45.990;18.688;2023-08-21T08:58:11;101114.00;;;42.20;28.49
75298;BME280;63896;45.990;18.688;2023-08-21T09:01:14;101115.00;;;41.96;29.36
75298;BME280;63896;45.990;18.688;2023-08-21T09:04:21;101110.81;;;42.62;28.35
75298;BME280;63896;45.990;18.688;2023-08-21T09:07:25;101113.53;;;43.07;28.06
75298;BME280;63896;45.990;18.688;2023-08-21T09:10:28;101113.38;;;42.46;29.30
75298;BME280;63896;45.990;18.688;2023-08-21T09:13:31;101107.03;;;44.24;26.57
75298;BME280;63896;45.990;18.688;2023-08-21T09:16:35;101102.00;;;43.89;27.27
75298;BME280;63896;45.990;18.688;2023-08-21T09:19:38;101103.44;;;44.67;25.98
75298;BME280;63896;45.990;18.688;2023-08-21T09:22:42;101102.75;;;43.93;27.09
75298;BME280;63896;45.990;18.688;2023-08-21T09:25:55;101100.28;;;44.22;26.77
75298;BME280;63896;45.990;18.688;2023-08-21T09:28:59;101086.38;;;43.07;28.17
75298;BME280;63896;45.990;18.688;2023-08-21T09:32:02;101098.94;;;43.53;27.83
75298;BME280;63896;45.990;18.688;2023-08-21T09:35:06;101089.34;;;44.04;26.39
75298;BME280;63896;45.990;18.688;2023-08-21T09:38:09;101085.06;;;44.66;25.66
75298;BME280;63896;45.990;18.688;2023-08-21T09:41:12;101077.25;;;44.53;26.73
75298;BME280;63896;45.990;18.688;2023-08-21T09:44:16;101076.66;;;45.05;24.97
75298;BME280;63896;45.990;18.688;2023-08-21T09:47:19;101075.97;;;44.38;25.25
75298;BME280;63896;45.990;18.688;2023-08-21T09:50:22;101078.00;;;45.53;23.09
75298;BME280;63896;45.990;18.688;2023-08-21T09:53:26;101078.50;;;44.92;24.19
75298;BME280;63896;45.990;18.688;2023-08-21T09:56:30;101077.00;;;45.43;24.60
75298;BME280;63896;45.990;18.688;2023-08-21T09:59:33;101082.47;;;44.75;24.06
75298;BME280;63896;45.990;18.688;2023-08-21T10:02:37;101081.72;;;45.30;23.68
75298;BME280;63896;45.990;18.688;2023-08-21T10:05:41;101075.13;;;45.20;24.36
75298;BME280;63896;45.990;18.688;2023-08-21T10:08:46;101077.03;;;45.23;23.68
75298;BME280;63896;45.990;18.688;2023-08-21T10:11:52;101065.28;;;44.92;23.01
75298;BME280;63896;45.990;18.688;2023-08-21T10:14:56;101063.47;;;44.43;23.97
75298;BME280;63896;45.990;18.688;2023-08-21T10:18:18;101060.28;;;45.72;22.09
75298;BME280;63896;45.990;18.688;2023-08-21T10:21:23;101069.09;;;45.22;22.09
75298;BME280;63896;45.990;18.688;2023-08-21T10:24:36;101049.94;;;45.85;21.76
75298;BME280;63896;45.990;18.688;2023-08-21T10:27:43;101057.75;;;45.77;21.86
75298;BME280;63896;45.990;18.688;2023-08-21T10:30:48;101053.09;;;46.90;20.20
75298;BME280;63896;45.990;18.688;2023-08-21T10:33:50;101056.66;;;46.65;19.99
75298;BME280;63896;45.990;18.688;2023-08-21T10:37:07;101045.09;;;46.47;19.70
75298;BME280;63896;45.990;18.688;2023-08-21T10:40:22;101048.97;;;45.59;19.99
75298;BME280;63896;45.990;18.688;2023-08-21T10:43:41;101040.16;;;46.79;19.96
75298;BME280;63896;45.990;18.688;2023-08-21T10:46:52;101048.38;;;46.86;20.23
75298;BME280;63896;45.990;18.688;2023-08-21T10:49:58;101045.94;;;46.31;20.31
75298;BME280;63896;45.990;18.688;2023-08-21T10:53:01;101040.53;;;46.94;18.96
75298;BME280;63896;45.990;18.688;2023-08-21T10:56:04;101038.56;;;45.08;21.15
75298;BME280;63896;45.990;18.688;2023-08-21T10:59:07;101036.78;;;45.33;20.69
75298;BME280;63896;45.990;18.688;2023-08-21T11:02:14;101039.00;;;44.27;22.17
75298;BME280;63896;45.990;18.688;2023-08-21T11:05:16;101033.91;;;45.01;22.06
75298;BME280;63896;45.990;18.688;2023-08-21T11:08:19;101030.38;;;45.65;20.51
75298;BME280;63896;45.990;18.688;2023-08-21T11:11:22;101026.53;;;46.36;20.10
75298;BME280;63896;45.990;18.688;2023-08-21T11:14:26;101026.94;;;47.05;18.57
75298;BME280;63896;45.990;18.688;2023-08-21T11:17:28;101018.31;;;45.52;20.67
75298;BME280;63896;45.990;18.688;2023-08-21T11:20:33;101021.56;;;46.57;19.90
75298;BME280;63896;45.990;18.688;2023-08-21T11:23:37;101023.25;;;46.67;19.22
75298;BME280;63896;45.990;18.688;2023-08-21T11:26:41;101018.69;;;46.44;19.98
75298;BME280;63896;45.990;18.688;2023-08-21T11:29:45;101025.28;;;45.28;20.87
75298;BME280;63896;45.990;18.688;2023-08-21T11:32:48;101016.84;;;46.09;19.91
75298;BME280;63896;45.990;18.688;2023-08-21T11:35:51;101023.88;;;46.01;19.52
75298;BME280;63896;45.990;18.688;2023-08-21T11:39:01;101019.72;;;47.55;18.59
75298;BME280;63896;45.990;18.688;2023-08-21T11:42:09;101013.66;;;48.03;18.15
75298;BME280;63896;45.990;18.688;2023-08-21T11:45:14;101013.22;;;46.95;19.62
75298;BME280;63896;45.990;18.688;2023-08-21T11:48:19;101008.94;;;46.20;19.81
75298;BME280;63896;45.990;18.688;2023-08-21T11:51:22;101016.25;;;47.00;19.22
75298;BME280;63896;45.990;18.688;2023-08-21T11:54:25;101004.66;;;46.98;19.39
75298;BME280;63896;45.990;18.688;2023-08-21T11:57:28;101006.59;;;47.26;19.68
75298;BME280;63896;45.990;18.688;2023-08-21T12:00:32;101001.19;;;47.19;20.01
75298;BME280;63896;45.990;18.688;2023-08-21T12:03:39;100995.25;;;47.30;19.41
75298;BME280;63896;45.990;18.688;2023-08-21T12:06:45;100998.41;;;45.79;20.64
75298;BME280;63896;45.990;18.688;2023-08-21T12:09:48;101004.81;;;45.79;20.31
75298;BME280;63896;45.990;18.688;2023-08-21T12:12:52;100992.19;;;45.87;20.23
75298;BME280;63896;45.990;18.688;2023-08-21T12:15:54;101000.19;;;45.04;21.54
75298;BME280;63896;45.990;18.688;2023-08-21T12:18:57;100989.88;;;46.56;20.41
75298;BME280;63896;45.990;18.688;2023-08-21T12:22:00;100996.34;;;47.07;19.76
75298;BME280;63896;45.990;18.688;2023-08-21T12:25:03;100988.44;;;46.35;19.29
75298;BME280;63896;45.990;18.688;2023-08-21T12:28:06;100989.63;;;47.30;19.04
75298;BME280;63896;45.990;18.688;2023-08-21T12:31:11;100984.66;;;44.84;20.43
75298;BME280;63896;45.990;18.688;2023-08-21T12:34:14;100979.06;;;45.52;19.14
75298;BME280;63896;45.990;18.688;2023-08-21T12:37:17;100969.28;;;45.24;20.11
75298;BME280;63896;45.990;18.688;2023-08-21T12:40:20;100974.84;;;45.76;20.07
75298;BME280;63896;45.990;18.688;2023-08-21T12:43:22;100963.69;;;45.24;20.58
75298;BME280;63896;45.990;18.688;2023-08-21T12:46:25;100962.72;;;45.31;21.25
75298;BME280;63896;45.990;18.688;2023-08-21T12:49:31;100965.81;;;44.84;21.16
75298;BME280;63896;45.990;18.688;2023-08-21T12:52:34;100959.31;;;44.71;20.83
75298;BME280;63896;45.990;18.688;2023-08-21T12:55:37;100961.25;;;44.54;20.91
75298;BME280;63896;45.990;18.688;2023-08-21T12:58:40;100958.38;;;44.94;20.39
75298;BME280;63896;45.990;18.688;2023-08-21T13:01:42;100957.22;;;44.55;19.97
75298;BME280;63896;45.990;18.688;2023-08-21T13:04:45;100955.81;;;45.68;19.70
75298;BME280;63896;45.990;18.688;2023-08-21T13:07:48;100953.66;;;44.35;20.13
75298;BME280;63896;45.990;18.688;2023-08-21T13:10:51;100940.59;;;44.29;21.23
75298;BME280;63896;45.990;18.688;2023-08-21T13:13:54;100951.63;;;45.60;19.36
75298;BME280;63896;45.990;18.688;2023-08-21T13:16:56;100936.22;;;45.35;19.36
75298;BME280;63896;45.990;18.688;2023-08-21T13:19:59;100938.38;;;45.60;19.99
75298;BME280;63896;45.990;18.688;2023-08-21T13:23:02;100934.47;;;45.86;18.88
75298;BME280;63896;45.990;18.688;2023-08-21T13:26:05;100932.66;;;45.64;19.06
75298;BME280;63896;45.990;18.688;2023-08-21T13:29:08;100929.88;;;44.04;20.36
75298;BME280;63896;45.990;18.688;2023-08-21T13:32:10;100937.19;;;44.93;20.24
75298;BME280;63896;45.990;18.688;2023-08-21T13:35:13;100929.38;;;45.53;20.11
75298;BME280;63896;45.990;18.688;2023-08-21T13:38:16;100926.28;;;45.31;20.85
75298;BME280;63896;45.990;18.688;2023-08-21T13:41:19;100927.50;;;44.97;20.97
75298;BME280;63896;45.990;18.688;2023-08-21T13:44:22;100934.53;;;44.70;21.86
75298;BME280;63896;45.990;18.688;2023-08-21T13:47:24;100925.63;;;44.16;21.41
75298;BME280;63896;45.990;18.688;2023-08-21T13:50:27;100928.03;;;42.44;23.66
75298;BME280;63896;45.990;18.688;2023-08-21T13:53:30;100916.22;;;43.43;23.13
75298;BME280;63896;45.990;18.688;2023-08-21T13:56:33;100913.78;;;42.92;23.63
75298;BME280;63896;45.990;18.688;2023-08-21T13:59:36;100923.44;;;43.64;23.87
75298;BME280;63896;45.990;18.688;2023-08-21T14:02:40;100923.00;;;43.65;23.15
75298;BME280;63896;45.990;18.688;2023-08-21T14:05:43;100908.69;;;42.56;23.46
75298;BME280;63896;45.990;18.688;2023-08-21T14:08:46;100909.88;;;40.91;25.19
75298;BME280;63896;45.990;18.688;2023-08-21T14:11:49;100908.31;;;39.75;27.66
75298;BME280;63896;45.990;18.688;2023-08-21T14:14:52;100902.00;;;39.50;27.87
75298;BME280;63896;45.990;18.688;2023-08-21T14:17:54;100907.41;;;38.76;30.27
75298;BME280;63896;45.990;18.688;2023-08-21T14:20:58;100898.34;;;38.89;31.54
75298;BME280;63896;45.990;18.688;2023-08-21T14:24:01;100908.94;;;38.59;31.03
75298;BME280;63896;45.990;18.688;2023-08-21T14:27:04;100908.94;;;38.52;29.54
75298;BME280;63896;45.990;18.688;2023-08-21T14:30:07;100891.16;;;38.74;29.38
75298;BME280;63896;45.990;18.688;2023-08-21T14:33:10;100894.19;;;38.34;30.40
75298;BME280;63896;45.990;18.688;2023-08-21T14:36:14;100896.84;;;38.16;31.67
75298;BME280;63896;45.990;18.688;2023-08-21T14:39:17;100888.03;;;37.96;31.80
75298;BME280;63896;45.990;18.688;2023-08-21T14:42:20;100894.28;;;37.83;31.75
75298;BME280;63896;45.990;18.688;2023-08-21T14:45:22;100896.97;;;36.84;32.89
75298;BME280;63896;45.990;18.688;2023-08-21T14:48:25;100887.53;;;36.55;33.04
75298;BME280;63896;45.990;18.688;2023-08-21T14:51:28;100900.66;;;36.95;33.93
75298;BME280;63896;45.990;18.688;2023-08-21T14:54:34;100896.03;;;37.06;32.78
75298;BME280;63896;45.990;18.688;2023-08-21T14:57:38;100897.34;;;36.83;32.55
75298;BME280;63896;45.990;18.688;2023-08-21T15:00:40;100888.25;;;36.49;33.84
75298;BME280;63896;45.990;18.688;2023-08-21T15:03:43;100884.25;;;36.76;33.68
75298;BME280;63896;45.990;18.688;2023-08-21T15:06:49;100881.13;;;36.48;33.80
75298;BME280;63896;45.990;18.688;2023-08-21T15:09:52;100881.44;;;36.43;34.54
75298;BME280;63896;45.990;18.688;2023-08-21T15:12:54;100884.75;;;36.55;34.11
75298;BME280;63896;45.990;18.688;2023-08-21T15:15:57;100879.19;;;36.52;33.45
75298;BME280;63896;45.990;18.688;2023-08-21T15:19:00;100884.66;;;36.15;34.84
75298;BME280;63896;45.990;18.688;2023-08-21T15:22:03;100879.47;;;35.34;34.73
75298;BME280;63896;45.990;18.688;2023-08-21T15:25:06;100881.78;;;35.10;35.14
75298;BME280;63896;45.990;18.688;2023-08-21T15:28:09;100877.41;;;35.09;34.50
75298;BME280;63896;45.990;18.688;2023-08-21T15:31:12;100883.47;;;34.95;34.62
75298;BME280;63896;45.990;18.688;2023-08-21T15:34:14;100878.81;;;34.99;34.61
75298;BME280;63896;45.990;18.688;2023-08-21T15:37:17;100883.03;;;34.70;34.51
75298;BME280;63896;45.990;18.688;2023-08-21T15:40:20;100877.00;;;34.65;34.68
75298;BME280;63896;45.990;18.688;2023-08-21T15:43:23;100873.34;;;34.80;35.02
75298;BME280;63896;45.990;18.688;2023-08-21T15:46:26;100879.53;;;34.54;35.21